createdAt,value
2023-03-27T00:01:06.444Z,9.75
2023-03-27T00:03:32.870Z,9.73
2023-03-27T00:05:59.190Z,9.72
2023-03-27T00:08:25.503Z,9.67
2023-03-27T00:10:51.861Z,9.81
2023-03-27T00:13:18.243Z,9.87
2023-03-27T00:15:44.589Z,9.94
2023-03-27T00:18:10.949Z,9.97
2023-03-27T00:20:37.359Z,10.01
2023-03-27T00:23:03.682Z,9.96
2023-03-27T00:25:30.017Z,9.82
2023-03-27T00:27:56.365Z,9.89
2023-03-27T00:30:22.736Z,9.88
2023-03-27T00:32:49.117Z,9.84
2023-03-27T00:35:15.486Z,9.83
2023-03-27T00:37:41.791Z,9.82
2023-03-27T00:40:08.231Z,9.72
2023-03-27T00:42:34.525Z,9.62
2023-03-27T00:45:00.914Z,9.51
2023-03-27T00:47:27.299Z,9.39
2023-03-27T00:49:53.698Z,9.21
2023-03-27T00:52:20.012Z,9.15
2023-03-27T00:54:46.364Z,9.22
2023-03-27T00:57:12.804Z,9.17
2023-03-27T00:59:39.068Z,9.16
2023-03-27T01:02:05.385Z,9.23
2023-03-27T01:04:31.761Z,9.23
2023-03-27T01:06:58.154Z,9.14
2023-03-27T01:09:24.496Z,9.17
2023-03-27T01:11:50.865Z,9.18
2023-03-27T01:14:17.256Z,9.22
2023-03-27T01:16:43.598Z,9.22
2023-03-27T01:19:10.046Z,9.35
2023-03-27T01:21:36.421Z,9.36
2023-03-27T01:24:02.800Z,9.55
2023-03-27T01:26:36.732Z,9.68
2023-03-27T01:28:55.540Z,9.67
2023-03-27T01:31:23.128Z,9.65
2023-03-27T01:33:48.348Z,9.68
2023-03-27T01:36:14.775Z,9.64
2023-03-27T01:38:41.275Z,9.70
2023-03-27T01:41:07.609Z,9.84
2023-03-27T01:43:33.998Z,9.85
2023-03-27T01:46:00.359Z,10.02
2023-03-27T01:48:26.750Z,9.98
2023-03-27T01:50:53.067Z,9.84
2023-03-27T01:53:19.453Z,9.93
2023-03-27T01:55:45.802Z,9.93
2023-03-27T01:58:12.172Z,9.88
2023-03-27T02:00:51.297Z,9.88
2023-03-27T02:03:04.927Z,9.64
2023-03-27T02:05:31.204Z,9.63
2023-03-27T02:07:57.626Z,9.56
2023-03-27T02:10:23.983Z,9.63
2023-03-27T02:12:50.353Z,9.58
2023-03-27T02:15:24.129Z,9.51
2023-03-27T02:17:43.038Z,9.64
2023-03-27T02:20:09.369Z,9.51
2023-03-27T02:22:37.787Z,9.35
2023-03-27T02:25:02.172Z,9.47
2023-03-27T02:27:28.598Z,9.35
2023-03-27T02:29:54.918Z,9.27
2023-03-27T02:32:21.381Z,9.26
2023-03-27T02:34:47.662Z,9.43
2023-03-27T02:37:13.998Z,9.30
2023-03-27T02:39:40.321Z,9.27
2023-03-27T02:42:06.710Z,9.23
2023-03-27T02:44:33.083Z,9.07
2023-03-27T02:46:59.418Z,9.02
2023-03-27T02:49:25.777Z,9.16
2023-03-27T02:51:52.145Z,9.32
2023-03-27T02:54:18.467Z,9.43
2023-03-27T02:56:44.829Z,9.49
2023-03-27T02:59:11.146Z,9.31
2023-03-27T03:01:37.722Z,9.15
2023-03-27T03:04:04.016Z,9.11
2023-03-27T03:06:30.372Z,8.91
2023-03-27T03:08:56.675Z,8.97
2023-03-27T03:11:23.022Z,9.09
2023-03-27T03:13:49.429Z,9.04
2023-03-27T03:16:15.817Z,8.81
2023-03-27T03:18:42.135Z,8.68
2023-03-27T03:21:10.896Z,8.65
2023-03-27T03:23:37.233Z,8.67
2023-03-27T03:26:03.554Z,8.84
2023-03-27T03:28:29.942Z,8.88
2023-03-27T03:30:56.437Z,8.93
2023-03-27T03:33:22.596Z,9.03
2023-03-27T03:35:49.023Z,9.02
2023-03-27T03:38:15.310Z,8.87
2023-03-27T03:40:41.690Z,8.88
2023-03-27T03:43:08.006Z,9.05
2023-03-27T03:45:34.348Z,9.12
2023-03-27T03:48:00.741Z,9.13
2023-03-27T03:50:27.081Z,9.21
2023-03-27T03:52:53.415Z,9.16
2023-03-27T03:55:19.897Z,9.13
2023-03-27T03:57:46.233Z,9.20
2023-03-27T04:00:12.587Z,9.38
2023-03-27T04:02:39.095Z,9.48
2023-03-27T04:05:09.526Z,9.42
2023-03-27T04:07:31.712Z,9.30
2023-03-27T04:09:58.076Z,9.24
2023-03-27T04:12:24.383Z,9.34
2023-03-27T04:14:50.868Z,9.36
2023-03-27T04:17:17.192Z,9.37
2023-03-27T04:19:43.541Z,9.26
2023-03-27T04:22:09.855Z,9.23
2023-03-27T04:24:36.242Z,9.25
2023-03-27T04:27:02.547Z,9.27
2023-03-27T04:29:28.965Z,9.47
2023-03-27T04:31:55.317Z,9.67
2023-03-27T04:34:21.714Z,9.86
2023-03-27T04:36:48.113Z,9.77
2023-03-27T04:39:14.439Z,9.57
2023-03-27T04:41:40.842Z,9.63
2023-03-27T04:44:07.247Z,9.46
2023-03-27T04:46:33.637Z,9.52
2023-03-27T04:49:00.215Z,9.57
2023-03-27T04:51:26.609Z,10.20
2023-03-27T04:53:52.964Z,10.76
2023-03-27T04:56:19.390Z,11.05
2023-03-27T04:58:45.751Z,11.36
2023-03-27T05:01:12.360Z,11.58
2023-03-27T05:03:38.677Z,11.75
2023-03-27T05:06:05.012Z,11.81
2023-03-27T05:08:31.406Z,12.16
2023-03-27T05:10:57.897Z,12.34
2023-03-27T05:13:24.109Z,12.75
2023-03-27T05:15:50.498Z,12.88
2023-03-27T05:18:16.863Z,12.65
2023-03-27T05:20:43.278Z,12.64
2023-03-27T05:23:10.667Z,12.43
2023-03-27T05:25:37.021Z,12.22
2023-03-27T05:28:03.670Z,12.11
2023-03-27T05:30:30.025Z,12.19
2023-03-27T05:32:56.422Z,12.09
2023-03-27T05:35:22.723Z,12.03
2023-03-27T05:37:49.034Z,11.96
2023-03-27T05:40:15.401Z,11.99
2023-03-27T05:42:41.770Z,12.30
2023-03-27T05:45:08.124Z,12.54
2023-03-27T05:47:34.558Z,12.44
2023-03-27T05:50:00.894Z,12.37
2023-03-27T05:52:28.846Z,13.18
2023-03-27T05:54:53.652Z,13.20
2023-03-27T05:57:20.013Z,12.94
2023-03-27T05:59:46.330Z,12.86
2023-03-27T06:02:12.770Z,13.00
2023-03-27T06:04:39.138Z,13.04
2023-03-27T06:07:05.467Z,12.82
2023-03-27T06:09:34.581Z,12.80
2023-03-27T06:12:00.985Z,12.78
2023-03-27T06:14:27.299Z,12.67
2023-03-27T06:16:56.059Z,12.75
2023-03-27T06:19:22.417Z,12.93
2023-03-27T06:21:48.858Z,13.23
2023-03-27T06:24:15.232Z,13.50
2023-03-27T06:26:41.602Z,13.69
2023-03-27T06:29:08.671Z,13.53
2023-03-27T06:31:34.534Z,12.95
2023-03-27T06:34:00.775Z,12.59
2023-03-27T06:36:27.404Z,12.48
2023-03-27T06:38:53.705Z,12.42
2023-03-27T06:41:32.262Z,12.31
2023-03-27T06:43:59.685Z,12.35
2023-03-27T06:46:35.296Z,12.48
2023-03-27T06:48:53.556Z,12.65
2023-03-27T06:51:19.934Z,12.87
2023-03-27T06:53:46.362Z,13.07
2023-03-27T06:56:12.792Z,13.25
2023-03-27T06:58:39.460Z,13.48
2023-03-27T07:01:05.868Z,13.82
2023-03-27T07:03:32.246Z,14.42
2023-03-27T07:05:59.132Z,15.41
2023-03-27T07:08:25.629Z,16.02
2023-03-27T07:11:07.445Z,16.21
2023-03-27T07:13:18.063Z,16.62
2023-03-27T07:15:44.541Z,16.73
2023-03-27T07:18:10.894Z,16.73
2023-03-27T07:20:37.219Z,16.44
2023-03-27T07:23:03.666Z,16.74
2023-03-27T07:25:30.031Z,16.98
2023-03-27T07:27:56.458Z,17.00
2023-03-27T07:30:22.820Z,16.18
2023-03-27T07:32:49.241Z,15.97
2023-03-27T07:35:15.563Z,15.57
2023-03-27T07:37:41.873Z,15.05
2023-03-27T07:40:08.302Z,14.81
2023-03-27T07:42:34.724Z,15.05
2023-03-27T07:45:02.316Z,15.21
2023-03-27T07:47:27.432Z,15.09
2023-03-27T07:49:56.249Z,14.91
2023-03-27T07:52:22.640Z,14.86
2023-03-27T07:54:49.123Z,14.73
2023-03-27T07:57:15.523Z,14.58
2023-03-27T07:59:42.143Z,14.60
2023-03-27T08:02:08.489Z,14.45
2023-03-27T08:04:34.942Z,14.35
2023-03-27T08:07:03.414Z,14.29
2023-03-27T08:09:29.745Z,14.31
2023-03-27T08:11:56.407Z,14.24
2023-03-27T08:14:22.787Z,14.34
2023-03-27T08:16:49.180Z,14.43
2023-03-27T08:19:15.597Z,14.40
2023-03-27T08:21:41.933Z,14.35
2023-03-27T08:24:08.339Z,14.45
2023-03-27T08:26:34.639Z,14.47
2023-03-27T08:29:01.055Z,14.36
2023-03-27T08:31:27.424Z,14.42
2023-03-27T08:33:53.823Z,14.56
2023-03-27T08:36:20.218Z,14.43
2023-03-27T08:38:46.517Z,14.31
2023-03-27T08:41:12.876Z,14.23
2023-03-27T08:43:39.532Z,14.22
2023-03-27T08:46:05.955Z,14.24
2023-03-27T08:48:32.259Z,14.22
2023-03-27T08:50:58.630Z,14.17
2023-03-27T08:53:24.964Z,14.21
2023-03-27T08:55:51.379Z,14.31
2023-03-27T08:58:17.802Z,14.39
2023-03-27T09:00:44.180Z,14.54
2023-03-27T09:03:10.692Z,14.69
2023-03-27T09:05:36.862Z,14.98
2023-03-27T09:08:03.226Z,15.27
2023-03-27T09:10:29.617Z,15.40
2023-03-27T09:12:56.004Z,15.51
2023-03-27T09:15:22.377Z,15.64
2023-03-27T09:17:48.810Z,15.74
2023-03-27T09:20:15.093Z,15.83
2023-03-27T09:22:41.468Z,15.87
2023-03-27T09:25:07.902Z,15.94
2023-03-27T09:27:38.074Z,16.02
2023-03-27T09:30:05.896Z,16.14
2023-03-27T09:32:33.235Z,16.13
2023-03-27T09:34:57.288Z,16.05
2023-03-27T09:37:23.694Z,15.81
2023-03-27T09:39:50.110Z,15.65
2023-03-27T09:42:16.425Z,15.63
2023-03-27T09:44:43.197Z,15.61
2023-03-27T09:47:09.929Z,15.63
2023-03-27T09:49:36.096Z,15.67
2023-03-27T09:52:02.484Z,15.77
2023-03-27T09:54:29.910Z,15.84
2023-03-27T09:56:56.383Z,15.89
2023-03-27T09:59:22.699Z,15.87
2023-03-27T10:01:49.023Z,15.86
2023-03-27T10:04:15.468Z,15.91
2023-03-27T10:06:42.019Z,16.01
2023-03-27T10:09:08.388Z,16.06
2023-03-27T10:11:34.754Z,16.04
2023-03-27T10:14:01.123Z,15.99
2023-03-27T10:16:27.603Z,15.93
2023-03-27T10:18:53.859Z,15.91
2023-03-27T10:21:20.161Z,15.91
2023-03-27T10:23:46.593Z,15.82
2023-03-27T10:26:12.890Z,15.75
2023-03-27T10:28:39.304Z,15.77
2023-03-27T10:31:05.724Z,15.53
2023-03-27T10:33:32.117Z,15.41
2023-03-27T10:35:58.611Z,15.36
2023-03-27T10:38:24.950Z,15.33
2023-03-27T10:40:51.272Z,15.33
2023-03-27T10:43:17.754Z,15.38
2023-03-27T10:45:44.250Z,15.40
2023-03-27T10:48:10.690Z,15.46
2023-03-27T10:50:37.048Z,15.51
2023-03-27T10:53:03.441Z,15.56
2023-03-27T10:55:29.761Z,15.60
2023-03-27T10:57:56.165Z,15.71
2023-03-27T11:00:22.565Z,15.85
2023-03-27T11:02:49.093Z,15.95
2023-03-27T11:05:15.407Z,16.04
2023-03-27T11:07:41.801Z,16.11
2023-03-27T11:10:08.194Z,16.05
2023-03-27T11:12:34.584Z,15.80
2023-03-27T11:15:01.054Z,15.48
2023-03-27T11:17:29.006Z,15.21
2023-03-27T11:19:53.922Z,14.96
2023-03-27T11:22:20.296Z,14.68
2023-03-27T11:24:46.642Z,14.41
2023-03-27T11:27:14.575Z,14.20
2023-03-27T11:29:39.543Z,13.95
2023-03-27T11:32:05.859Z,13.76
2023-03-27T11:34:32.198Z,13.67
2023-03-27T11:36:58.627Z,13.45
2023-03-27T11:39:24.991Z,13.32
2023-03-27T11:41:51.370Z,13.17
2023-03-27T11:44:17.733Z,13.05
2023-03-27T11:46:44.142Z,13.00
2023-03-27T11:49:10.463Z,12.96
2023-03-27T11:51:36.813Z,12.85
2023-03-27T11:54:03.250Z,12.82
2023-03-27T11:56:29.622Z,12.73
2023-03-27T11:58:55.995Z,12.53
2023-03-27T12:01:22.455Z,12.20
2023-03-27T12:03:48.935Z,11.58
2023-03-27T12:06:15.199Z,10.88
2023-03-27T12:08:42.650Z,10.53
2023-03-27T12:11:08.179Z,10.28
2023-03-27T12:13:41.291Z,9.64
2023-03-27T12:16:00.861Z,9.25
2023-03-27T12:18:35.399Z,9.14
2023-03-27T12:20:53.937Z,9.10
2023-03-27T12:23:20.095Z,8.94
2023-03-27T12:25:48.593Z,8.77
2023-03-27T12:28:22.038Z,8.75
2023-03-27T12:30:41.326Z,8.76
2023-03-27T12:33:10.184Z,8.66
2023-03-27T12:35:37.412Z,8.58
2023-03-27T12:38:03.788Z,8.64
2023-03-27T12:40:30.487Z,8.58
2023-03-27T12:42:56.834Z,8.51
2023-03-27T12:45:23.775Z,8.53
2023-03-27T12:47:50.268Z,8.32
2023-03-27T12:50:16.620Z,7.96
2023-03-27T12:52:43.040Z,7.98
2023-03-27T12:55:09.387Z,7.95
2023-03-27T12:57:36.857Z,7.84
2023-03-27T13:00:03.090Z,7.90
2023-03-27T13:02:29.588Z,7.95
2023-03-27T13:04:56.829Z,7.96
2023-03-27T13:07:23.548Z,7.94
2023-03-27T13:09:49.887Z,8.01
2023-03-27T13:12:16.233Z,8.22
2023-03-27T13:14:42.741Z,8.39
2023-03-27T13:17:09.100Z,8.60
2023-03-27T13:19:35.489Z,8.73
2023-03-27T13:22:01.839Z,8.85
2023-03-27T13:24:28.242Z,8.87
2023-03-27T13:26:54.848Z,8.98
2023-03-27T13:29:21.205Z,9.03
2023-03-27T13:31:47.548Z,9.13
2023-03-27T13:34:13.984Z,9.18
2023-03-27T13:36:40.258Z,9.27
2023-03-27T13:39:06.653Z,9.34
2023-03-27T13:41:33.116Z,9.28
2023-03-27T13:43:59.383Z,9.44
2023-03-27T13:46:25.882Z,9.46
2023-03-27T13:48:52.240Z,9.52
2023-03-27T13:51:18.951Z,9.45
2023-03-27T13:53:45.306Z,9.49
2023-03-27T13:56:11.825Z,9.50
2023-03-27T13:58:38.171Z,9.67
2023-03-27T14:01:04.540Z,9.62
2023-03-27T14:03:30.996Z,9.56
2023-03-27T14:05:57.768Z,9.41
2023-03-27T14:08:24.038Z,9.42
2023-03-27T14:10:50.444Z,9.57
2023-03-27T14:13:16.825Z,9.58
2023-03-27T14:15:43.149Z,9.54
2023-03-27T14:18:09.623Z,9.59
2023-03-27T14:20:35.888Z,9.61
2023-03-27T14:23:02.267Z,9.67
2023-03-27T14:25:28.619Z,9.78
2023-03-27T14:27:55.005Z,9.82
2023-03-27T14:30:21.478Z,9.96
2023-03-27T14:32:47.928Z,9.98
2023-03-27T14:35:14.195Z,10.04
2023-03-27T14:37:40.588Z,10.08
2023-03-27T14:40:06.971Z,10.13
2023-03-27T14:42:33.600Z,10.16
2023-03-27T14:44:59.698Z,10.26
2023-03-27T14:47:26.150Z,10.28
2023-03-27T14:49:52.492Z,10.29
2023-03-27T14:52:18.881Z,10.26
2023-03-27T14:54:54.672Z,10.40
2023-03-27T14:57:11.848Z,10.52
2023-03-27T14:59:38.130Z,10.46
2023-03-27T15:02:04.540Z,10.33
2023-03-27T15:04:30.988Z,10.09
2023-03-27T15:06:57.387Z,9.98
2023-03-27T15:09:23.741Z,9.92
2023-03-27T15:11:50.106Z,9.90
2023-03-27T15:14:16.655Z,9.92
2023-03-27T15:16:43.029Z,9.97
2023-03-27T15:19:09.354Z,10.07
2023-03-27T15:21:35.718Z,10.04
2023-03-27T15:24:02.113Z,9.80
2023-03-27T15:26:28.421Z,9.78
2023-03-27T15:28:54.741Z,9.72
2023-03-27T15:31:21.121Z,9.68
2023-03-27T15:33:47.424Z,9.74
2023-03-27T15:36:13.787Z,9.76
2023-03-27T15:38:40.159Z,9.83
2023-03-27T15:41:06.514Z,9.78
2023-03-27T15:43:32.899Z,9.78
2023-03-27T15:45:59.745Z,9.72
2023-03-27T15:48:25.876Z,9.70
2023-03-27T15:50:52.184Z,9.80
2023-03-27T15:53:18.570Z,9.87
2023-03-27T15:55:44.932Z,9.92
2023-03-27T15:58:11.345Z,9.95
2023-03-27T16:00:37.692Z,9.93
2023-03-27T16:03:04.090Z,9.87
2023-03-27T16:05:30.530Z,9.82
2023-03-27T16:07:56.859Z,9.75
2023-03-27T16:10:23.267Z,9.76
2023-03-27T16:12:49.673Z,9.77
2023-03-27T16:15:16.029Z,9.80
2023-03-27T16:17:42.426Z,9.89
2023-03-27T16:20:08.762Z,9.88
2023-03-27T16:22:35.105Z,9.95
2023-03-27T16:25:01.484Z,10.00
2023-03-27T16:27:27.892Z,9.98
2023-03-27T16:29:54.292Z,10.01
2023-03-27T16:32:20.618Z,10.00
2023-03-27T16:34:47.018Z,10.01
2023-03-27T16:37:13.378Z,9.98
2023-03-27T16:39:39.797Z,9.96
2023-03-27T16:42:08.666Z,10.01
2023-03-27T16:44:35.946Z,10.04
2023-03-27T16:47:03.412Z,10.07
2023-03-27T16:49:30.005Z,10.07
2023-03-27T16:51:56.361Z,10.07
2023-03-27T16:54:23.162Z,10.07
2023-03-27T16:56:49.556Z,10.06
2023-03-27T16:59:15.876Z,10.00
2023-03-27T17:01:42.208Z,9.96
2023-03-27T17:04:08.676Z,9.95
2023-03-27T17:06:34.986Z,9.93
2023-03-27T17:09:01.368Z,9.90
2023-03-27T17:11:27.906Z,9.89
2023-03-27T17:13:54.259Z,9.90
2023-03-27T17:16:20.620Z,9.88
2023-03-27T17:18:46.965Z,9.85
2023-03-27T17:21:13.322Z,9.86
2023-03-27T17:23:39.727Z,9.89
2023-03-27T17:26:06.131Z,9.87
2023-03-27T17:28:32.511Z,9.85
2023-03-27T17:31:04.769Z,9.86
2023-03-27T17:33:25.269Z,9.85
2023-03-27T17:35:51.624Z,9.74
2023-03-27T17:38:18.004Z,9.71
2023-03-27T17:40:44.385Z,9.71
2023-03-27T17:43:10.820Z,9.72
2023-03-27T17:45:37.185Z,9.68
2023-03-27T17:48:03.641Z,9.67
2023-03-27T17:50:29.996Z,9.68
2023-03-27T17:52:56.422Z,9.72
2023-03-27T17:55:22.769Z,9.81
2023-03-27T17:57:55.673Z,9.80
2023-03-27T18:00:15.525Z,9.81
2023-03-27T18:02:42.007Z,9.85
2023-03-27T18:05:08.246Z,9.92
2023-03-27T18:07:34.602Z,9.98
2023-03-27T18:10:00.977Z,10.03
2023-03-27T18:12:27.370Z,10.07
2023-03-27T18:14:53.836Z,10.10
2023-03-27T18:17:20.238Z,10.17
2023-03-27T18:19:46.573Z,9.97
2023-03-27T18:22:12.964Z,9.72
2023-03-27T18:24:39.406Z,9.32
2023-03-27T18:27:05.729Z,8.93
2023-03-27T18:29:32.079Z,8.69
2023-03-27T18:31:58.553Z,8.61
2023-03-27T18:34:24.832Z,8.53
2023-03-27T18:36:51.304Z,8.47
2023-03-27T18:39:17.624Z,8.37
2023-03-27T18:41:44.035Z,8.40
2023-03-27T18:44:10.411Z,8.38
2023-03-27T18:46:36.793Z,8.35
2023-03-27T18:49:13.605Z,8.36
2023-03-27T18:51:29.567Z,8.28
2023-03-27T18:53:55.927Z,8.19
2023-03-27T18:56:22.298Z,8.12
2023-03-27T18:58:48.749Z,7.91
2023-03-27T19:01:15.254Z,7.68
2023-03-27T19:03:41.540Z,7.58
2023-03-27T19:06:09.023Z,7.60
2023-03-27T19:08:35.394Z,7.64
2023-03-27T19:11:01.915Z,7.72
2023-03-27T19:13:28.173Z,7.85
2023-03-27T19:15:54.668Z,7.97
2023-03-27T19:18:21.120Z,8.06
2023-03-27T19:20:47.860Z,8.12
2023-03-27T19:23:14.587Z,8.17
2023-03-27T19:25:40.938Z,8.21
2023-03-27T19:28:07.366Z,8.13
2023-03-27T19:30:33.827Z,8.11
2023-03-27T19:33:00.239Z,8.14
2023-03-27T19:35:26.510Z,8.15
2023-03-27T19:37:52.822Z,8.24
2023-03-27T19:40:19.221Z,8.24
2023-03-27T19:42:45.566Z,8.19
2023-03-27T19:45:11.910Z,8.21
2023-03-27T19:47:38.391Z,8.25
2023-03-27T19:50:04.733Z,8.23
2023-03-27T19:52:31.116Z,8.23
2023-03-27T19:54:57.465Z,8.24
2023-03-27T19:57:23.939Z,8.19
2023-03-27T19:59:50.191Z,8.22
2023-03-27T20:02:16.674Z,8.24
2023-03-27T20:04:42.997Z,8.19
2023-03-27T20:07:09.372Z,8.22
2023-03-27T20:09:35.776Z,8.23
2023-03-27T20:12:02.223Z,8.27
2023-03-27T20:14:28.518Z,8.25
2023-03-27T20:16:54.873Z,8.24
2023-03-27T20:19:22.174Z,8.20
2023-03-27T20:21:47.629Z,8.16
2023-03-27T20:24:13.956Z,8.14
2023-03-27T20:26:40.370Z,8.06
2023-03-27T20:29:07.026Z,7.92
2023-03-27T20:31:33.396Z,7.94
2023-03-27T20:33:59.705Z,7.97
2023-03-27T20:36:26.139Z,8.00
2023-03-27T20:38:52.469Z,7.91
2023-03-27T20:41:18.825Z,7.88
2023-03-27T20:43:45.166Z,7.83
2023-03-27T20:46:11.505Z,7.84
2023-03-27T20:48:37.907Z,7.84
2023-03-27T20:51:04.593Z,7.80
2023-03-27T20:53:33.642Z,7.70
2023-03-27T20:56:00.127Z,7.68
2023-03-27T20:58:23.634Z,7.70
2023-03-27T21:00:50.078Z,7.68
2023-03-27T21:03:16.349Z,7.64
2023-03-27T21:05:42.753Z,7.58
2023-03-27T21:08:09.066Z,7.51
2023-03-27T21:10:35.562Z,7.48
2023-03-27T21:13:01.927Z,7.48
2023-03-27T21:15:28.284Z,7.39
2023-03-27T21:17:54.662Z,7.30
2023-03-27T21:20:21.030Z,7.16
2023-03-27T21:22:47.693Z,7.03
2023-03-27T21:25:14.080Z,6.88
2023-03-27T21:27:40.457Z,6.80
2023-03-27T21:30:06.850Z,6.74
2023-03-27T21:32:33.194Z,6.73
2023-03-27T21:34:59.560Z,6.65
2023-03-27T21:37:25.892Z,6.73
2023-03-27T21:39:52.299Z,6.75
2023-03-27T21:42:18.632Z,6.77
2023-03-27T21:44:49.674Z,6.76
2023-03-27T21:47:11.350Z,6.73
2023-03-27T21:49:37.737Z,6.73
2023-03-27T21:52:04.065Z,6.75
2023-03-27T21:54:30.433Z,6.77
2023-03-27T21:56:56.848Z,6.76
2023-03-27T21:59:23.174Z,6.73
2023-03-27T22:01:49.585Z,6.72
2023-03-27T22:04:16.259Z,6.70
2023-03-27T22:06:42.557Z,6.69
2023-03-27T22:09:08.931Z,6.69
2023-03-27T22:11:35.332Z,6.63
2023-03-27T22:14:01.666Z,6.56
2023-03-27T22:16:28.031Z,6.61
2023-03-27T22:18:54.396Z,6.65
2023-03-27T22:21:20.729Z,6.61
2023-03-27T22:23:47.096Z,6.64
2023-03-27T22:26:13.451Z,6.63
2023-03-27T22:28:39.835Z,6.46
2023-03-27T22:31:06.210Z,6.25
2023-03-27T22:33:32.580Z,6.22
2023-03-27T22:35:59.283Z,6.16
2023-03-27T22:38:25.337Z,5.96
2023-03-27T22:40:51.663Z,5.84
2023-03-27T22:43:22.820Z,5.70
2023-03-27T22:45:44.428Z,5.52
2023-03-27T22:48:13.013Z,5.34
2023-03-27T22:50:39.334Z,5.23
2023-03-27T22:53:05.785Z,5.17
2023-03-27T22:55:32.098Z,5.16
2023-03-27T22:57:58.568Z,5.25
2023-03-27T23:00:25.905Z,5.24
2023-03-27T23:02:52.315Z,4.98
2023-03-27T23:05:18.567Z,4.83
2023-03-27T23:07:44.980Z,4.76
2023-03-27T23:10:11.340Z,4.73
2023-03-27T23:12:37.723Z,4.76
2023-03-27T23:15:04.056Z,4.70
2023-03-27T23:17:30.544Z,4.70
2023-03-27T23:19:56.927Z,4.50
2023-03-27T23:22:23.297Z,4.47
2023-03-27T23:24:49.649Z,4.44
2023-03-27T23:27:16.053Z,4.41
2023-03-27T23:29:42.376Z,4.39
2023-03-27T23:32:09.148Z,4.32
2023-03-27T23:34:35.403Z,4.33
2023-03-27T23:37:01.782Z,4.36
2023-03-27T23:39:28.158Z,4.30
2023-03-27T23:41:54.509Z,4.22
2023-03-27T23:44:20.829Z,4.28
2023-03-27T23:46:47.208Z,4.22
2023-03-27T23:49:13.551Z,4.23
2023-03-27T23:51:39.873Z,4.24
2023-03-27T23:54:06.241Z,4.32
2023-03-27T23:56:32.635Z,4.30
2023-03-27T23:58:58.951Z,4.30
